Time;durP1;ratioP1;P1;durP2;ratioP2;P2;SDS_P1;SDS_P2;PMS_P1;PMS_P2;Temp;Humidity;BMP_temperature;BMP_pressure;BME280_temperature;BME280_humidity;BME280_pressure;Samples;Min_cycle;Max_cycle;Signal;HPM_P1;HPM_P2
2022/10/11 00:02:03;;;;;;;23.83;6.17;;;13.30;99.90;;;;;;20992370;28;20029;-75
2022/10/11 00:12:04;;;;;;;13.77;5.30;;;13.50;99.90;;;;;;20992215;28;20124;-75
2022/10/11 00:22:05;;;;;;;15.17;5.90;;;13.60;99.90;;;;;;20919550;22;20550;-80
2022/10/11 00:32:06;;;;;;;18.67;5.67;;;13.60;99.90;;;;;;20924797;28;20410;-79
2022/10/11 00:42:15;;;;;;;10.53;4.43;;;13.60;99.90;;;;;;20933846;28;20045;-79
2022/10/11 00:52:36;;;;;;;18.92;6.80;;;13.40;99.90;;;;;;20931619;28;20103;-78
2022/10/11 01:02:38;;;;;;;15.00;6.05;;;13.30;99.90;;;;;;20930278;28;20037;-80
2022/10/11 01:12:58;;;;;;;12.52;5.03;;;13.40;99.90;;;;;;20930731;28;20044;-78
2022/10/11 01:23:15;;;;;;;13.88;6.82;;;13.30;99.90;;;;;;21007335;28;20036;-78
2022/10/11 01:33:35;;;;;;;16.58;6.70;;;13.30;99.90;;;;;;21010083;28;20052;-79
2022/10/11 01:43:38;;;;;;;15.02;6.82;;;12.70;99.90;;;;;;21011685;28;20120;-79
2022/10/11 01:53:45;;;;;;;22.65;8.25;;;12.50;99.90;;;;;;20992169;28;20046;-78
2022/10/11 02:03:56;;;;;;;12.00;5.55;;;12.50;99.90;;;;;;21009134;28;20048;-78
2022/10/11 02:14:11;;;;;;;20.60;7.97;;;12.30;99.90;;;;;;21007946;28;20040;-79
2022/10/11 02:24:16;;;;;;;19.02;7.65;;;12.40;99.90;;;;;;20989365;28;20049;-78
2022/10/11 02:34:36;;;;;;;14.10;7.10;;;12.60;99.90;;;;;;21006719;28;20072;-79
2022/10/11 02:44:44;;;;;;;13.18;6.22;;;12.70;99.90;;;;;;20987907;28;20127;-79
2022/10/11 02:54:44;;;;;;;14.50;6.80;;;12.70;99.90;;;;;;21004404;28;20487;-78
2022/10/11 03:04:45;;;;;;;23.57;6.83;;;12.60;99.90;;;;;;20988897;28;20055;-79
2022/10/11 03:14:46;;;;;;;16.67;6.97;;;12.80;99.90;;;;;;21009190;28;20051;-78
2022/10/11 03:24:47;;;;;;;14.20;6.23;;;12.80;99.90;;;;;;21004192;28;20525;-77
2022/10/11 03:34:47;;;;;;;18.40;6.97;;;12.80;99.90;;;;;;20984017;28;20058;-78
2022/10/11 03:44:50;;;;;;;11.73;5.60;;;12.80;99.90;;;;;;20974265;28;20033;-79
2022/10/11 03:54:51;;;;;;;10.95;4.40;;;13.00;99.90;;;;;;20898435;28;20087;-78
2022/10/11 04:04:52;;;;;;;12.27;3.87;;;13.20;99.90;;;;;;21002267;28;20368;-79
2022/10/11 04:14:52;;;;;;;8.73;3.63;;;13.50;99.90;;;;;;21004143;28;20094;-79
2022/10/11 04:24:53;;;;;;;12.70;3.63;;;13.20;99.90;;;;;;20990202;28;20041;-79
2022/10/11 04:34:54;;;;;;;6.90;2.93;;;13.50;99.90;;;;;;21001948;28;20064;-80
2022/10/11 04:44:55;;;;;;;8.23;4.17;;;13.70;99.90;;;;;;21000747;28;20043;-79
2022/10/11 04:54:56;;;;;;;19.87;5.47;;;13.70;99.90;;;;;;20992325;28;20044;-79
2022/10/11 05:04:57;;;;;;;8.70;3.70;;;13.60;99.90;;;;;;20988279;28;20040;-79
2022/10/11 05:14:58;;;;;;;9.77;3.13;;;13.70;99.90;;;;;;21001734;28;20044;-84
2022/10/11 05:24:59;;;;;;;9.07;3.50;;;13.60;99.90;;;;;;20985526;28;20128;-84
2022/10/11 05:35:00;;;;;;;8.47;3.80;;;13.40;99.90;;;;;;20985106;28;20462;-84
2022/10/11 05:45:01;;;;;;;8.40;3.40;;;13.20;99.90;;;;;;21001279;28;20047;-85
2022/10/11 05:55:03;;;;;;;8.85;3.75;;;13.20;99.90;;;;;;20982575;28;20410;-85
2022/10/11 06:05:04;;;;;;;8.93;4.50;;;13.20;99.90;;;;;;20987975;28;20036;-80
2022/10/11 06:15:06;;;;;;;13.33;5.40;;;13.00;99.90;;;;;;20986281;22;20530;-78
2022/10/11 06:25:07;;;;;;;18.83;6.65;;;13.00;99.90;;;;;;20987169;28;20406;-78
2022/10/11 06:35:08;;;;;;;15.53;6.00;;;12.90;99.90;;;;;;21012369;28;20517;-78
2022/10/11 06:45:09;;;;;;;22.20;5.93;;;13.00;99.90;;;;;;20959078;28;20500;-78
2022/10/11 06:55:10;;;;;;;19.27;7.13;;;13.20;99.90;;;;;;21005262;28;20032;-78
2022/10/11 07:05:11;;;;;;;15.23;6.10;;;13.30;99.90;;;;;;21033979;28;20102;-79
2022/10/11 07:15:11;;;;;;;20.80;5.97;;;13.30;99.90;;;;;;21026307;28;20043;-79
2022/10/11 07:25:12;;;;;;;14.37;5.90;;;13.60;99.90;;;;;;21006956;28;20053;-79
2022/10/11 07:35:13;;;;;;;20.47;5.37;;;13.80;99.90;;;;;;21004346;28;20032;-78
2022/10/11 07:45:14;;;;;;;15.83;7.30;;;14.20;99.90;;;;;;21021044;28;20040;-77
2022/10/11 07:55:15;;;;;;;10.90;6.17;;;14.50;99.90;;;;;;20987418;28;20041;-78
2022/10/11 08:05:16;;;;;;;13.63;5.93;;;14.30;99.90;;;;;;21010623;28;20107;-77
2022/10/11 08:15:17;;;;;;;12.70;5.83;;;14.90;99.90;;;;;;21015642;28;20045;-77
2022/10/11 08:25:17;;;;;;;13.37;5.27;;;15.40;99.90;;;;;;20989765;28;20514;-76
2022/10/11 08:35:18;;;;;;;15.13;4.80;;;15.90;99.90;;;;;;20989317;28;20052;-76
2022/10/11 08:45:31;;;;;;;16.50;4.60;;;16.60;99.90;;;;;;20954714;28;20051;-76
2022/10/11 08:55:42;;;;;;;15.00;4.18;;;17.60;99.90;;;;;;20984177;28;20045;-76
2022/10/11 09:05:55;;;;;;;9.67;4.20;;;18.20;99.90;;;;;;20942664;28;20430;-76
2022/10/11 09:15:59;;;;;;;16.58;4.45;;;18.10;99.90;;;;;;20902503;28;20114;-75
2022/10/11 09:26:24;;;;;;;23.90;5.55;;;18.60;99.90;;;;;;20901612;28;20052;-75
2022/10/11 09:37:03;;;;;;;13.10;4.05;;;18.30;99.90;;;;;;20922544;28;20411;-74
2022/10/11 09:47:05;;;;;;;19.95;5.78;;;18.60;99.90;;;;;;20899942;28;20049;-75
2022/10/11 09:57:21;;;;;;;22.92;9.77;;;19.90;99.90;;;;;;20966619;28;20037;-75
2022/10/11 10:07:23;;;;;;;10.35;4.03;;;21.90;99.90;;;;;;20956551;28;20059;-75
2022/10/11 10:17:23;;;;;;;12.90;4.80;;;21.60;99.90;;;;;;20970101;28;20044;-76
2022/10/11 10:27:27;;;;;;;14.60;4.23;;;21.40;99.90;;;;;;20979263;28;20041;-75
2022/10/11 10:37:34;;;;;;;10.02;4.13;;;21.20;99.90;;;;;;20918714;28;20178;-75
2022/10/11 10:47:56;;;;;;;9.85;3.38;;;21.40;99.90;;;;;;20934246;28;20040;-76
2022/10/11 10:58:29;;;;;;;13.93;3.30;;;21.60;99.90;;;;;;20917371;28;20041;-76
2022/10/11 11:08:41;;;;;;;30.15;23.08;;;22.60;99.90;;;;;;20864556;28;20041;-76
2022/10/11 11:18:57;;;;;;;10.60;4.57;;;23.00;99.90;;;;;;20909281;28;20048;-76
2022/10/11 11:29:12;;;;;;;60.72;45.70;;;23.90;99.90;;;;;;20909586;28;20110;-76
2022/10/11 11:39:24;;;;;;;17.98;7.60;;;23.90;99.90;;;;;;20909057;28;20099;-76
2022/10/11 11:49:40;;;;;;;489.27;395.67;;;23.20;99.90;;;;;;20909637;28;20041;-76
2022/10/11 12:00:02;;;;;;;21.83;9.15;;;23.10;99.90;;;;;;20918248;28;20044;-76
2022/10/11 12:10:23;;;;;;;20.30;7.70;;;24.30;99.90;;;;;;20908053;28;20043;-76
2022/10/11 12:20:25;;;;;;;29.67;19.50;;;24.40;99.90;;;;;;20985408;22;20139;-79
2022/10/11 12:30:47;;;;;;;22.23;12.10;;;24.30;99.90;;;;;;21012811;28;20518;-78
2022/10/11 12:40:53;;;;;;;;;;;24.00;99.90;;;;;;20994536;28;20152;-77
2022/10/11 12:51:09;;;;;;;36.20;29.30;;;23.90;99.90;;;;;;21011367;28;19912;-79
2022/10/11 13:01:16;;;;;;;9.52;3.42;;;24.00;99.90;;;;;;21012796;28;20401;-78
2022/10/11 13:11:26;;;;;;;22.48;14.63;;;23.90;99.90;;;;;;21011312;28;20044;-78
2022/10/11 13:21:37;;;;;;;63.25;43.03;;;23.00;99.90;;;;;;21009820;28;20051;-78
2022/10/11 13:31:39;;;;;;;32.63;20.53;;;22.70;99.90;;;;;;20932348;28;20509;-78
2022/10/11 13:41:41;;;;;;;12.35;4.05;;;22.30;99.90;;;;;;20925272;28;20044;-78
2022/10/11 13:51:42;;;;;;;11.65;2.88;;;22.40;99.90;;;;;;20925871;28;20041;-77
2022/10/11 14:01:44;;;;;;;15.63;4.50;;;22.10;99.90;;;;;;20907420;28;20396;-78
2022/10/11 14:11:45;;;;;;;13.48;5.07;;;21.20;99.90;;;;;;20900217;28;20041;-75
2022/10/11 14:21:47;;;;;;;11.67;4.13;;;20.30;99.90;;;;;;20911499;28;20115;-78
2022/10/11 14:31:49;;;;;;;21.73;5.70;;;19.50;99.90;;;;;;20923035;28;20083;-76
2022/10/11 14:41:51;;;;;;;19.17;7.57;;;19.30;99.90;;;;;;20913732;28;20029;-77
2022/10/11 14:51:54;;;;;;;22.88;8.05;;;18.70;99.90;;;;;;20899234;28;20036;-79
2022/10/11 15:01:55;;;;;;;17.83;9.98;;;18.60;99.90;;;;;;20930118;28;20116;-79
2022/10/11 15:11:56;;;;;;;21.10;9.83;;;18.10;99.90;;;;;;20901822;28;20418;-78
2022/10/11 15:21:57;;;;;;;20.92;10.45;;;17.90;99.90;;;;;;20942087;28;20044;-79
2022/10/11 15:31:58;;;;;;;25.60;10.90;;;17.70;99.90;;;;;;20917912;28;20039;-78
2022/10/11 15:41:59;;;;;;;21.63;10.60;;;17.70;99.90;;;;;;20897688;28;20120;-79
2022/10/11 15:52:00;;;;;;;31.80;13.40;;;17.40;99.90;;;;;;20903561;28;20032;-78
2022/10/11 16:02:01;;;;;;;23.53;11.57;;;17.10;99.90;;;;;;20884216;28;20047;-78
2022/10/11 16:12:02;;;;;;;26.70;12.00;;;16.80;99.90;;;;;;20983434;28;20036;-78
2022/10/11 16:22:02;;;;;;;21.67;10.70;;;16.60;99.90;;;;;;20984027;28;20047;-78
2022/10/11 16:32:03;;;;;;;29.30;12.77;;;16.50;99.90;;;;;;20881755;28;20041;-78
2022/10/11 16:42:04;;;;;;;22.27;10.70;;;16.20;99.90;;;;;;20953730;28;20029;-77
2022/10/11 16:52:05;;;;;;;22.10;10.13;;;16.10;99.90;;;;;;20945673;28;20036;-77
2022/10/11 17:02:12;;;;;;;26.83;11.27;;;16.20;99.90;;;;;;20949928;28;20041;-78
2022/10/11 17:12:15;;;;;;;24.42;11.15;;;15.90;99.90;;;;;;20954022;28;20425;-78
2022/10/11 17:22:18;;;;;;;29.45;12.35;;;15.80;99.90;;;;;;20962797;28;20032;-78
2022/10/11 17:32:19;;;;;;;30.48;12.68;;;15.50;99.90;;;;;;20961770;28;20033;-78
2022/10/11 17:42:19;;;;;;;30.80;13.17;;;15.40;99.90;;;;;;20922172;28;20124;-79
2022/10/11 17:52:20;;;;;;;36.17;13.87;;;15.20;99.90;;;;;;20897488;28;20041;-78
2022/10/11 18:02:21;;;;;;;27.97;12.53;;;15.00;99.90;;;;;;20922793;28;20040;-78
2022/10/11 18:12:22;;;;;;;36.53;13.47;;;15.10;99.90;;;;;;20925605;28;20525;-78
2022/10/11 18:22:23;;;;;;;28.17;13.80;;;15.10;99.90;;;;;;20954523;22;20424;-75
2022/10/11 18:32:24;;;;;;;26.90;13.00;;;15.10;99.90;;;;;;20915133;28;20431;-74
2022/10/11 18:42:24;;;;;;;30.73;13.90;;;15.00;99.90;;;;;;20914254;28;20072;-75
2022/10/11 18:52:25;;;;;;;24.37;12.70;;;15.10;99.90;;;;;;20922425;28;20036;-75
2022/10/11 19:02:26;;;;;;;28.33;11.37;;;15.10;99.90;;;;;;20912964;28;20044;-75
2022/10/11 19:12:27;;;;;;;27.33;12.02;;;15.00;99.90;;;;;;20914252;28;20041;-74
2022/10/11 19:22:28;;;;;;;20.47;11.53;;;14.80;99.90;;;;;;20959660;28;20086;-74
2022/10/11 19:32:29;;;;;;;26.07;11.73;;;14.70;99.90;;;;;;20974595;28;20418;-75
2022/10/11 19:42:29;;;;;;;29.50;11.93;;;14.80;99.90;;;;;;20979173;28;20045;-74
2022/10/11 19:52:30;;;;;;;21.83;11.30;;;15.10;99.90;;;;;;20958437;28;20060;-74
2022/10/11 20:02:32;;;;;;;21.17;10.27;;;15.00;99.90;;;;;;20945313;28;20052;-74
2022/10/11 20:12:33;;;;;;;23.08;9.73;;;14.90;99.90;;;;;;20948633;28;20037;-74
2022/10/11 20:22:34;;;;;;;26.30;10.63;;;15.10;99.90;;;;;;20948855;28;20051;-74
2022/10/11 20:32:34;;;;;;;20.60;11.40;;;15.00;99.90;;;;;;20946360;28;20521;-74
2022/10/11 20:42:36;;;;;;;27.30;12.80;;;14.10;99.90;;;;;;20945062;28;20040;-74
2022/10/11 20:52:37;;;;;;;26.60;12.85;;;13.60;99.90;;;;;;20960515;28;20540;-74
2022/10/11 21:02:38;;;;;;;34.20;15.30;;;13.40;99.90;;;;;;20967314;28;20037;-72
2022/10/11 21:12:38;;;;;;;35.57;17.17;;;13.00;99.90;;;;;;20964364;28;20040;-73
2022/10/11 21:22:39;;;;;;;24.53;13.37;;;12.70;99.90;;;;;;20947948;28;20491;-74
2022/10/11 21:32:40;;;;;;;39.60;15.70;;;12.90;99.90;;;;;;20919095;28;20033;-74
2022/10/11 21:42:41;;;;;;;28.57;14.23;;;12.90;99.90;;;;;;20924120;28;20127;-74
2022/10/11 21:52:41;;;;;;;22.43;13.10;;;13.10;99.90;;;;;;20917754;28;20384;-74
2022/10/11 22:02:42;;;;;;;26.93;13.80;;;13.30;99.90;;;;;;20915763;28;20036;-74
2022/10/11 22:12:43;;;;;;;30.13;12.70;;;13.40;99.90;;;;;;20916098;28;20120;-74
2022/10/11 22:22:44;;;;;;;22.20;9.10;;;13.50;99.90;;;;;;20915011;28;20410;-77
2022/10/11 22:32:45;;;;;;;20.20;10.53;;;13.50;99.90;;;;;;20896241;28;20048;-76
2022/10/11 22:42:46;;;;;;;22.37;10.37;;;14.20;99.90;;;;;;20913495;28;20075;-75
2022/10/11 22:52:46;;;;;;;21.57;9.77;;;14.20;99.90;;;;;;20912807;28;20036;-76
2022/10/11 23:02:47;;;;;;;21.83;9.97;;;14.20;99.90;;;;;;20911868;28;20041;-77
2022/10/11 23:12:48;;;;;;;22.00;8.67;;;14.30;99.90;;;;;;20910214;28;20033;-76
2022/10/11 23:22:49;;;;;;;17.60;8.57;;;14.40;99.90;;;;;;20909966;28;20041;-76
2022/10/11 23:32:50;;;;;;;16.00;7.63;;;14.30;99.90;;;;;;20909870;28;20039;-77
2022/10/11 23:42:50;;;;;;;21.70;8.60;;;14.30;99.90;;;;;;20908307;28;20099;-77
2022/10/11 23:52:51;;;;;;;21.47;7.80;;;14.40;99.90;;;;;;20908123;28;20054;-76
